Aviation Digital Data Service (ADDS)

Output produced by METARs form (2225 UTC 23 March 2019)
found at http://www.aviationweather.gov/metar/data/
 
METAR text: RJSF 232200Z 17003KT 9999 FEW030 BKN040 BKN060 M02/M06 Q1012
Conditions at: RJSF (FUKUSHIMA ARPT , JP) observed 2200 UTC 23 March 2019
Temperature: -2.0°C (28°F)
Dewpoint: -6.0°C (21°F) [RH = 74%]
Pressure (altimeter): 29.88 inches Hg (1012.0 mb)
Winds: from the S (170 degrees) at 3 MPH (3 knots; 1.5 m/s)
Visibility: 6 or more miles (10+ km)
Ceiling: 4000 feet AGL
Clouds: few clouds at 3000 feet AGL
broken clouds at 4000 feet AGL
broken clouds at 6000 feet AGL
Weather: no significant weather observed at this time

METAR text: RJSF 232140Z 18003KT 140V240 9999 FEW030 SCT050 BKN070 M02/M06 Q1012 RMK 1CU030 4CU050 6AC070 A2988
Conditions at: RJSF (FUKUSHIMA ARPT , JP) observed 2140 UTC 23 March 2019
Temperature: -2.0°C (28°F)
Dewpoint: -6.0°C (21°F) [RH = 74%]
Pressure (altimeter): 29.88 inches Hg (1012.0 mb)
Winds: from the S (180 degrees) at 3 MPH (3 knots; 1.5 m/s)
Visibility: 6 or more miles (10+ km)
Ceiling: 7000 feet AGL
Clouds: few clouds at 3000 feet AGL
scattered clouds at 5000 feet AGL
broken clouds at 7000 feet AGL
Weather: no significant weather observed at this time

METAR text: RJSF 231100Z 35010KT 9999 FEW030 BKN130 00/M07 Q1011
Conditions at: RJSF (FUKUSHIMA ARPT , JP) observed 1100 UTC 23 March 2019
Temperature: 0.0°C (32°F)
Dewpoint: -7.0°C (19°F) [RH = 59%]
Pressure (altimeter): 29.85 inches Hg (1011.0 mb)
Winds: from the N (350 degrees) at 12 MPH (10 knots; 5.1 m/s)
Visibility: 6 or more miles (10+ km)
Ceiling: 13000 feet AGL
Clouds: few clouds at 3000 feet AGL
broken clouds at 13000 feet AGL
Weather: no significant weather observed at this time

METAR text: RJSF 231000Z 34013G23KT 9999 FEW030 SCT040 BKN120 01/M06 Q1010
Conditions at: RJSF (FUKUSHIMA ARPT , JP) observed 1000 UTC 23 March 2019
Temperature: 1.0°C (34°F)
Dewpoint: -6.0°C (21°F) [RH = 59%]
Pressure (altimeter): 29.82 inches Hg (1010.0 mb)
Winds: from the NNW (340 degrees) at 15 MPH (13 knots; 6.7 m/s)
gusting to 26 MPH (23 knots; 11.8 m/s)
Visibility: 6 or more miles (10+ km)
Ceiling: 12000 feet AGL
Clouds: few clouds at 3000 feet AGL
scattered clouds at 4000 feet AGL
broken clouds at 12000 feet AGL
Weather: no significant weather observed at this time

METAR text: RJSF 230900Z 34010G20KT 9999 FEW025 SCT035 BKN130 02/M06 Q1010
Conditions at: RJSF (FUKUSHIMA ARPT , JP) observed 0900 UTC 23 March 2019
Temperature: 2.0°C (36°F)
Dewpoint: -6.0°C (21°F) [RH = 55%]
Pressure (altimeter): 29.82 inches Hg (1010.0 mb)
Winds: from the NNW (340 degrees) at 12 MPH (10 knots; 5.1 m/s)
gusting to 23 MPH (20 knots; 10.3 m/s)
Visibility: 6 or more miles (10+ km)
Ceiling: 13000 feet AGL
Clouds: few clouds at 2500 feet AGL
scattered clouds at 3500 feet AGL
broken clouds at 13000 feet AGL
Weather: no significant weather observed at this time

METAR text: RJSF 230800Z 32017KT 9999 FEW025 SCT030 BKN040 02/M06 Q1010
Conditions at: RJSF (FUKUSHIMA ARPT , JP) observed 0800 UTC 23 March 2019
Temperature: 2.0°C (36°F)
Dewpoint: -6.0°C (21°F) [RH = 55%]
Pressure (altimeter): 29.82 inches Hg (1010.0 mb)
Winds: from the NW (320 degrees) at 20 MPH (17 knots; 8.7 m/s)
Visibility: 6 or more miles (10+ km)
Ceiling: 4000 feet AGL
Clouds: few clouds at 2500 feet AGL
scattered clouds at 3000 feet AGL
broken clouds at 4000 feet AGL
Weather: no significant weather observed at this time

METAR text: RJSF 230700Z 34015KT 300V010 9999 FEW025 SCT030 BKN040 03/M05 Q1009
Conditions at: RJSF (FUKUSHIMA ARPT , JP) observed 0700 UTC 23 March 2019
Temperature: 3.0°C (37°F)
Dewpoint: -5.0°C (23°F) [RH = 56%]
Pressure (altimeter): 29.79 inches Hg (1009.0 mb)
Winds: from the NNW (340 degrees) at 17 MPH (15 knots; 7.7 m/s)
Visibility: 6 or more miles (10+ km)
Ceiling: 4000 feet AGL
Clouds: few clouds at 2500 feet AGL
scattered clouds at 3000 feet AGL
broken clouds at 4000 feet AGL
Weather: no significant weather observed at this time

METAR text: RJSF 230600Z 34017KT 9999 FEW025 SCT030 BKN040 04/M04 Q1009
Conditions at: RJSF (FUKUSHIMA ARPT , JP) observed 0600 UTC 23 March 2019
Temperature: 4.0°C (39°F)
Dewpoint: -4.0°C (25°F) [RH = 56%]
Pressure (altimeter): 29.79 inches Hg (1009.0 mb)
Winds: from the NNW (340 degrees) at 20 MPH (17 knots; 8.7 m/s)
Visibility: 6 or more miles (10+ km)
Ceiling: 4000 feet AGL
Clouds: few clouds at 2500 feet AGL
scattered clouds at 3000 feet AGL
broken clouds at 4000 feet AGL
Weather: no significant weather observed at this time

METAR text: RJSF 230500Z 36018KT 9999 FEW025 SCT035 BKN045 05/M03 Q1009
Conditions at: RJSF (FUKUSHIMA ARPT , JP) observed 0500 UTC 23 March 2019
Temperature: 5.0°C (41°F)
Dewpoint: -3.0°C (27°F) [RH = 56%]
Pressure (altimeter): 29.79 inches Hg (1009.0 mb)
Winds: from the N (360 degrees) at 21 MPH (18 knots; 9.3 m/s)
Visibility: 6 or more miles (10+ km)
Ceiling: 4500 feet AGL
Clouds: few clouds at 2500 feet AGL
scattered clouds at 3500 feet AGL
broken clouds at 4500 feet AGL
Weather: no significant weather observed at this time

METAR text: RJSF 230400Z 35022KT 9999 FEW030 BKN045 BKN/// 04/M03 Q1010
Conditions at: RJSF (FUKUSHIMA ARPT , JP) observed 0400 UTC 23 March 2019
Temperature: 4.0°C (39°F)
Dewpoint: -3.0°C (27°F) [RH = 60%]
Pressure (altimeter): 29.82 inches Hg (1010.0 mb)
Winds: from the N (350 degrees) at 25 MPH (22 knots; 11.3 m/s)
Visibility: 6 or more miles (10+ km)
Ceiling: 4500 feet AGL
Clouds: few clouds at 3000 feet AGL
broken clouds at 4500 feet AGL
Weather: no significant weather observed at this time

METAR text: RJSF 230300Z 33016KT 300V010 9999 FEW030 BKN040 BKN180 04/M04 Q1011
Conditions at: RJSF (FUKUSHIMA ARPT , JP) observed 0300 UTC 23 March 2019
Temperature: 4.0°C (39°F)
Dewpoint: -4.0°C (25°F) [RH = 56%]
Pressure (altimeter): 29.85 inches Hg (1011.0 mb)
Winds: from the NNW (330 degrees) at 18 MPH (16 knots; 8.2 m/s)
Visibility: 6 or more miles (10+ km)
Ceiling: 4000 feet AGL
Clouds: few clouds at 3000 feet AGL
broken clouds at 4000 feet AGL
broken clouds at 18000 feet AGL
Weather: no significant weather observed at this time

METAR text: RJSF 230200Z 34015KT 9999 FEW035 SCT080 BKN/// 05/M04 Q1011
Conditions at: RJSF (FUKUSHIMA ARPT , JP) observed 0200 UTC 23 March 2019
Temperature: 5.0°C (41°F)
Dewpoint: -4.0°C (25°F) [RH = 52%]
Pressure (altimeter): 29.85 inches Hg (1011.0 mb)
Winds: from the NNW (340 degrees) at 17 MPH (15 knots; 7.7 m/s)
Visibility: 6 or more miles (10+ km)
Ceiling: at least 12,000 feet AGL
Clouds: few clouds at 3500 feet AGL
scattered clouds at 8000 feet AGL
Weather: no significant weather observed at this time

METAR text: RJSF 230100Z 33014KT 290V360 9999 FEW040 SCT080 BKN/// 04/M06 Q1011
Conditions at: RJSF (FUKUSHIMA ARPT , JP) observed 0100 UTC 23 March 2019
Temperature: 4.0°C (39°F)
Dewpoint: -6.0°C (21°F) [RH = 48%]
Pressure (altimeter): 29.85 inches Hg (1011.0 mb)
Winds: from the NNW (330 degrees) at 16 MPH (14 knots; 7.2 m/s)
Visibility: 6 or more miles (10+ km)
Ceiling: at least 12,000 feet AGL
Clouds: few clouds at 4000 feet AGL
scattered clouds at 8000 feet AGL
Weather: no significant weather observed at this time

METAR text: RJSF 230000Z 33013KT 9999 FEW035 SCT070 BKN/// 04/M06 Q1011
Conditions at: RJSF (FUKUSHIMA ARPT , JP) observed 0000 UTC 23 March 2019
Temperature: 4.0°C (39°F)
Dewpoint: -6.0°C (21°F) [RH = 48%]
Pressure (altimeter): 29.85 inches Hg (1011.0 mb)
Winds: from the NNW (330 degrees) at 15 MPH (13 knots; 6.7 m/s)
Visibility: 6 or more miles (10+ km)
Ceiling: at least 12,000 feet AGL
Clouds: few clouds at 3500 feet AGL
scattered clouds at 7000 feet AGL
Weather: no significant weather observed at this time

METAR text: RJSF 222300Z 33010KT 290V350 9999 FEW030 SCT080 BKN/// 03/M05 Q1011
Conditions at: RJSF (FUKUSHIMA ARPT , JP) observed 2300 UTC 22 March 2019
Temperature: 3.0°C (37°F)
Dewpoint: -5.0°C (23°F) [RH = 56%]
Pressure (altimeter): 29.85 inches Hg (1011.0 mb)
Winds: from the NNW (330 degrees) at 12 MPH (10 knots; 5.1 m/s)
Visibility: 6 or more miles (10+ km)
Ceiling: at least 12,000 feet AGL
Clouds: few clouds at 3000 feet AGL
scattered clouds at 8000 feet AGL
Weather: no significant weather observed at this time

METAR text: RJSF 222200Z 34009KT 9999 FEW030 SCT060 BKN/// 02/M05 Q1012
Conditions at: RJSF (FUKUSHIMA ARPT , JP) observed 2200 UTC 22 March 2019
Temperature: 2.0°C (36°F)
Dewpoint: -5.0°C (23°F) [RH = 60%]
Pressure (altimeter): 29.88 inches Hg (1012.0 mb)
Winds: from the NNW (340 degrees) at 10 MPH (9 knots; 4.6 m/s)
Visibility: 6 or more miles (10+ km)
Ceiling: at least 12,000 feet AGL
Clouds: few clouds at 3000 feet AGL
scattered clouds at 6000 feet AGL
Weather: no significant weather observed at this time

METAR text: RJSF 222140Z 36008KT 330V040 9999 FEW030 SCT060 BKN/// 01/M05 Q1012 RMK 1CU030 3SC060 A2989
Conditions at: RJSF (FUKUSHIMA ARPT , JP) observed 2140 UTC 22 March 2019
Temperature: 1.0°C (34°F)
Dewpoint: -5.0°C (23°F) [RH = 64%]
Pressure (altimeter): 29.88 inches Hg (1012.0 mb)
Winds: from the N (360 degrees) at 9 MPH (8 knots; 4.1 m/s)
Visibility: 6 or more miles (10+ km)
Ceiling: at least 12,000 feet AGL
Clouds: few clouds at 3000 feet AGL
scattered clouds at 6000 feet AGL
Weather: no significant weather observed at this time

METAR text: RJSF 221136Z 34019G30KT 9999 FEW020 02/M03 Q1009 RMK 1CU020 A2982
Conditions at: RJSF (FUKUSHIMA ARPT , JP) observed 1136 UTC 22 March 2019
Temperature: 2.0°C (36°F)
Dewpoint: -3.0°C (27°F) [RH = 69%]
Pressure (altimeter): 29.79 inches Hg (1009.0 mb)
Winds: from the NNW (340 degrees) at 22 MPH (19 knots; 9.8 m/s)
gusting to 34 MPH (30 knots; 15.4 m/s)
Visibility: 6 or more miles (10+ km)
Ceiling: at least 12,000 feet AGL
Clouds: few clouds at 2000 feet AGL
Weather: no significant weather observed at this time

METAR text: RJSF 221100Z 34019KT 9999 FEW020 SCT040 03/M02 Q1009
Conditions at: RJSF (FUKUSHIMA ARPT , JP) observed 1100 UTC 22 March 2019
Temperature: 3.0°C (37°F)
Dewpoint: -2.0°C (28°F) [RH = 70%]
Pressure (altimeter): 29.79 inches Hg (1009.0 mb)
Winds: from the NNW (340 degrees) at 22 MPH (19 knots; 9.8 m/s)
Visibility: 6 or more miles (10+ km)
Ceiling: at least 12,000 feet AGL
Clouds: few clouds at 2000 feet AGL
scattered clouds at 4000 feet AGL
Weather: no significant weather observed at this time

Forecast for: RJSF (FUKUSHIMA ARPT , JP)
Text: TAF RJSF 231705Z 2318/2500 34004KT 9999 FEW020 SCT040
Forecast period: 1800 to 2200 UTC 23 March 2019
Forecast type: FROM: standard forecast or significant change
Winds: from the NNW (340 degrees) at 5 MPH (4 knots; 2.1 m/s)
Visibility: 6 or more miles 10+ km)
Ceiling: at least 12,000 feet AGL
Clouds: few clouds at 2000 feet AGL
scattered clouds at 4000 feet AGL
Weather: no significant weather forecast for this period
Text: BECMG 2322/2400 32015KT
Forecast period: 2200 UTC 23 March 2019 to 1200 UTC 24 March 2019
Forecast type: BECOMING: Conditions expected to become as follows by 0000 UTC 24 March 2019
Winds: from the NW (320 degrees) at 17 MPH (15 knots; 7.7 m/s)
Visibility: 6 or more miles 10+ km)
Ceiling: at least 12,000 feet AGL
Clouds: few clouds at 2000 feet AGL
scattered clouds at 4000 feet AGL
Weather: no significant weather forecast for this period
Text: TEMPO 2400/2406 32020G30KT
Forecast period: 0000 to 0600 UTC 24 March 2019
Forecast type: TEMPORARY: The following changes expected for less than half the time period
Winds: from the NW (320 degrees) at 23 MPH (20 knots; 10.3 m/s)
gusting to 34 MPH (30 knots; 15.4 m/s)
Visibility: missing
Ceiling: unknown
Clouds: missing
Weather: no significant weather forecast for this period
Text: BECMG 2412/2415 16004KT
Forecast period: 1200 UTC 24 March 2019 to 0000 UTC 25 March 2019
Forecast type: BECOMING: Conditions expected to become as follows by 1500 UTC 24 March 2019
Winds: from the SSE (160 degrees) at 5 MPH (4 knots; 2.1 m/s)
Visibility: 6 or more miles 10+ km)
Ceiling: at least 12,000 feet AGL
Clouds: few clouds at 2000 feet AGL
scattered clouds at 4000 feet AGL
Weather: no significant weather forecast for this period